createdAt,value
2018-08-04T00:00:42.592Z,100406.92
2018-08-04T00:03:12.228Z,100405.91
2018-08-04T00:05:42.174Z,100402.86
2018-08-04T00:08:11.891Z,100407.04
2018-08-04T00:10:41.636Z,100405.09
2018-08-04T00:13:11.455Z,100404.02
2018-08-04T00:15:41.060Z,100408.61
2018-08-04T00:18:10.669Z,100405.60
2018-08-04T00:20:40.072Z,100404.00
2018-08-04T00:23:09.604Z,100406.45
2018-08-04T00:25:39.287Z,100407.92
2018-08-04T00:28:08.977Z,100409.95
2018-08-04T00:30:38.820Z,100411.48
2018-08-04T00:33:08.619Z,100410.25
2018-08-04T00:35:38.076Z,100404.28
2018-08-04T00:38:07.520Z,100407.52
2018-08-04T00:40:37.338Z,100405.34
2018-08-04T00:43:07.766Z,100406.69
2018-08-04T00:45:37.408Z,100412.30
2018-08-04T00:48:07.245Z,100399.31
2018-08-04T00:50:36.896Z,100403.66
2018-08-04T00:53:06.913Z,100396.50
2018-08-04T00:55:36.828Z,100399.27
2018-08-04T00:58:06.948Z,100404.70
2018-08-04T01:00:36.967Z,100393.21
2018-08-04T01:03:06.775Z,100395.95
2018-08-04T01:05:36.782Z,100400.11
2018-08-04T01:08:06.093Z,100396.08
2018-08-04T01:10:35.712Z,100398.88
2018-08-04T01:13:05.262Z,100402.41
2018-08-04T01:15:34.709Z,100399.11
2018-08-04T01:18:03.956Z,100404.20
2018-08-04T01:20:33.233Z,100399.60
2018-08-04T01:23:02.501Z,100398.22
2018-08-04T01:25:31.743Z,100399.16
2018-08-04T01:28:01.008Z,100395.59
2018-08-04T01:30:30.431Z,100399.05
2018-08-04T01:32:59.717Z,100401.08
2018-08-04T01:35:29.233Z,100398.48
2018-08-04T01:37:58.591Z,100393.94
2018-08-04T01:40:27.926Z,100389.86
2018-08-04T01:42:57.302Z,100396.72
2018-08-04T01:45:26.537Z,100390.58
2018-08-04T01:47:55.889Z,100389.52
2018-08-04T01:50:25.130Z,100389.16
2018-08-04T01:52:54.428Z,100386.47
2018-08-04T01:55:23.745Z,100386.14
2018-08-04T01:57:53.152Z,100381.45
2018-08-04T02:00:22.529Z,100386.36
2018-08-04T02:02:51.737Z,100380.86
2018-08-04T02:05:21.160Z,100375.03
2018-08-04T02:07:50.440Z,100374.71
2018-08-04T02:10:19.879Z,100384.28
2018-08-04T02:12:49.105Z,100376.04
2018-08-04T02:15:18.344Z,100369.19
2018-08-04T02:17:47.582Z,100373.31
2018-08-04T02:20:16.846Z,100373.96
2018-08-04T02:22:46.122Z,100371.44
2018-08-04T02:25:15.526Z,100378.21
2018-08-04T02:27:44.581Z,100368.08
2018-08-04T02:30:13.842Z,100372.42
2018-08-04T02:32:43.300Z,100374.31
2018-08-04T02:35:12.765Z,100370.23
2018-08-04T02:37:42.058Z,100371.59
2018-08-04T02:40:11.358Z,100367.03
2018-08-04T02:42:40.633Z,100368.57
2018-08-04T02:45:10.337Z,100367.44
2018-08-04T02:47:39.621Z,100368.20
2018-08-04T02:50:09.436Z,100365.75
2018-08-04T02:52:38.768Z,100363.42
2018-08-04T02:55:07.966Z,100372.03
2018-08-04T02:57:37.150Z,100363.25
2018-08-04T03:00:07.003Z,100364.46
2018-08-04T03:02:36.390Z,100366.05
2018-08-04T03:05:05.808Z,100373.13
2018-08-04T03:07:35.141Z,100369.94
2018-08-04T03:10:04.497Z,100366.23
2018-08-04T03:12:33.851Z,100373.88
2018-08-04T03:15:03.181Z,100366.00
2018-08-04T03:17:32.574Z,100367.88
2018-08-04T03:20:01.821Z,100365.50
2018-08-04T03:22:31.095Z,100371.61
2018-08-04T03:25:00.409Z,100365.98
2018-08-04T03:27:29.764Z,100368.41
2018-08-04T03:29:58.992Z,100369.34
2018-08-04T03:32:28.311Z,100368.95
2018-08-04T03:34:57.638Z,100372.11
2018-08-04T03:37:26.916Z,100374.55
2018-08-04T03:39:56.298Z,100370.44
2018-08-04T03:42:26.017Z,100369.89
2018-08-04T03:44:55.273Z,100370.93
2018-08-04T03:47:24.523Z,100368.81
2018-08-04T03:49:53.811Z,100373.75
2018-08-04T03:52:23.084Z,100372.82
2018-08-04T03:54:52.257Z,100366.91
2018-08-04T03:57:21.477Z,100370.73
2018-08-04T03:59:50.726Z,100375.01
2018-08-04T04:02:20.154Z,100374.34
2018-08-04T04:04:49.512Z,100376.61
2018-08-04T04:07:18.826Z,100377.03
2018-08-04T04:09:48.752Z,100374.89
2018-08-04T04:12:18.446Z,100380.30
2018-08-04T04:14:47.799Z,100377.54
2018-08-04T04:17:17.071Z,100385.75
2018-08-04T04:19:46.433Z,100383.31
2018-08-04T04:22:15.781Z,100382.35
2018-08-04T04:24:45.291Z,100389.53
2018-08-04T04:27:14.465Z,100390.80
2018-08-04T04:29:43.713Z,100401.09
2018-08-04T04:32:13.049Z,100404.97
2018-08-04T04:34:42.282Z,100405.53
2018-08-04T04:37:11.529Z,100404.17
2018-08-04T04:39:40.911Z,100406.55
2018-08-04T04:42:10.265Z,100407.61
2018-08-04T04:44:39.381Z,100405.70
2018-08-04T04:47:08.662Z,100408.41
2018-08-04T04:49:37.997Z,100411.91
2018-08-04T04:52:07.252Z,100414.17
2018-08-04T04:54:36.428Z,100419.17
2018-08-04T04:57:05.779Z,100410.42
2018-08-04T04:59:35.001Z,100416.41
2018-08-04T05:02:04.394Z,100413.27
2018-08-04T05:04:33.759Z,100418.40
2018-08-04T05:07:03.109Z,100417.64
2018-08-04T05:09:32.334Z,100423.43
2018-08-04T05:12:01.661Z,100416.56
2018-08-04T05:14:31.146Z,100422.33
2018-08-04T05:17:00.681Z,100421.81
2018-08-04T05:19:29.911Z,100416.13
2018-08-04T05:21:59.160Z,100423.39
2018-08-04T05:24:28.485Z,100424.22
2018-08-04T05:26:57.805Z,100422.48
2018-08-04T05:29:27.057Z,100422.84
2018-08-04T05:31:56.433Z,100430.41
2018-08-04T05:34:25.653Z,100426.35
2018-08-04T05:36:55.314Z,100423.67
2018-08-04T05:39:24.546Z,100425.52
2018-08-04T05:41:53.881Z,100431.47
2018-08-04T05:44:23.180Z,100434.08
2018-08-04T05:46:52.606Z,100431.40
2018-08-04T05:49:21.870Z,100441.92
2018-08-04T05:51:51.284Z,100438.55
2018-08-04T05:54:20.660Z,100438.13
2018-08-04T05:56:50.093Z,100439.94
2018-08-04T05:59:19.799Z,100444.70
2018-08-04T06:01:49.106Z,100444.66
2018-08-04T06:04:18.349Z,100443.60
2018-08-04T06:06:47.653Z,100451.13
2018-08-04T06:09:16.986Z,100444.77
2018-08-04T06:11:46.190Z,100444.92
2018-08-04T06:14:15.446Z,100443.28
2018-08-04T06:16:44.805Z,100449.47
2018-08-04T06:19:14.083Z,100446.33
2018-08-04T06:21:43.482Z,100446.86
2018-08-04T06:24:12.633Z,100447.41
2018-08-04T06:26:42.186Z,100447.20
2018-08-04T06:29:11.622Z,100448.56
2018-08-04T06:31:41.054Z,100439.77
2018-08-04T06:34:10.188Z,100450.45
2018-08-04T06:36:39.454Z,100452.83
2018-08-04T06:39:09.330Z,100452.07
2018-08-04T06:41:38.585Z,100450.97
2018-08-04T06:44:07.963Z,100452.31
2018-08-04T06:46:37.170Z,100457.99
2018-08-04T06:49:06.449Z,100459.05
2018-08-04T06:51:35.737Z,100457.84
2018-08-04T06:54:05.185Z,100456.52
2018-08-04T06:56:34.418Z,100462.48
2018-08-04T06:59:03.827Z,100463.63
2018-08-04T07:01:33.205Z,100469.33
2018-08-04T07:04:02.536Z,100468.72
2018-08-04T07:06:31.825Z,100469.36
2018-08-04T07:09:01.149Z,100464.37
2018-08-04T07:11:30.414Z,100469.08
2018-08-04T07:13:59.705Z,100460.59
2018-08-04T07:16:28.903Z,100463.83
2018-08-04T07:18:58.226Z,100462.27
2018-08-04T07:21:27.487Z,100462.34
2018-08-04T07:23:56.749Z,100460.87
2018-08-04T07:26:26.105Z,100461.23
2018-08-04T07:28:55.451Z,100461.72
2018-08-04T07:31:24.801Z,100459.28
2018-08-04T07:33:54.166Z,100460.70
2018-08-04T07:36:23.669Z,100459.86
2018-08-04T07:38:52.966Z,100460.37
2018-08-04T07:41:22.210Z,100468.13
2018-08-04T07:43:51.566Z,100460.95
2018-08-04T07:46:20.807Z,100459.82
2018-08-04T07:48:50.109Z,100454.35
2018-08-04T07:51:19.276Z,100453.97
2018-08-04T07:53:48.449Z,100452.42
2018-08-04T07:56:17.855Z,100453.41
2018-08-04T07:58:47.265Z,100445.70
2018-08-04T08:01:16.525Z,100451.19
2018-08-04T08:03:46.059Z,100450.25
2018-08-04T08:06:15.341Z,100450.39
2018-08-04T08:08:44.813Z,100447.13
2018-08-04T08:11:14.135Z,100444.77
2018-08-04T08:13:43.389Z,100441.11
2018-08-04T08:16:12.662Z,100446.41
2018-08-04T08:18:42.066Z,100440.58
2018-08-04T08:21:11.343Z,100442.99
2018-08-04T08:23:40.678Z,100445.56
2018-08-04T08:26:11.714Z,100439.79
2018-08-04T08:28:41.845Z,100449.22
2018-08-04T08:31:11.276Z,100446.41
2018-08-04T08:33:41.202Z,100446.09
2018-08-04T08:36:10.764Z,100443.24
2018-08-04T08:38:40.090Z,100438.44
2018-08-04T08:41:09.527Z,100438.70
2018-08-04T08:43:38.769Z,100440.22
2018-08-04T08:46:08.134Z,100442.42
2018-08-04T08:48:37.347Z,100442.04
2018-08-04T08:51:06.696Z,100434.70
2018-08-04T08:53:36.145Z,100435.61
2018-08-04T08:56:05.102Z,100437.33
2018-08-04T08:58:34.460Z,100438.39
2018-08-04T09:01:03.597Z,100437.59
2018-08-04T09:03:32.841Z,100430.78
2018-08-04T09:06:02.096Z,100431.60
2018-08-04T09:08:31.462Z,100427.85
2018-08-04T09:11:00.694Z,100422.90
2018-08-04T09:13:30.071Z,100418.56
2018-08-04T09:15:59.311Z,100431.27
2018-08-04T09:18:28.612Z,100429.33
2018-08-04T09:20:57.826Z,100432.84
2018-08-04T09:23:27.159Z,100430.93
2018-08-04T09:25:56.434Z,100432.50
2018-08-04T09:28:25.802Z,100429.31
2018-08-04T09:30:55.103Z,100428.45
2018-08-04T09:33:24.480Z,100431.73
2018-08-04T09:35:53.755Z,100424.02
2018-08-04T09:38:23.068Z,100427.64
2018-08-04T09:40:52.426Z,100425.94
2018-08-04T09:43:21.863Z,100431.70
2018-08-04T09:45:51.180Z,100432.09
2018-08-04T09:48:20.521Z,100433.44
2018-08-04T09:50:49.617Z,100427.25
2018-08-04T09:53:18.986Z,100431.39
2018-08-04T09:55:48.430Z,100438.13
2018-08-04T09:58:17.653Z,100433.48
2018-08-04T10:00:51.848Z,100437.73
2018-08-04T10:03:21.116Z,100435.44
2018-08-04T10:05:50.462Z,100436.42
2018-08-04T10:08:19.674Z,100431.67
2018-08-04T10:10:48.931Z,100428.04
2018-08-04T10:13:18.425Z,100437.94
2018-08-04T10:15:47.633Z,100433.09
2018-08-04T10:18:16.884Z,100433.39
2018-08-04T10:20:46.138Z,100437.70
2018-08-04T10:23:15.471Z,100434.34
2018-08-04T10:25:44.689Z,100434.19
2018-08-04T10:28:13.941Z,100437.77
2018-08-04T10:30:43.186Z,100429.44
2018-08-04T10:33:12.432Z,100430.66
2018-08-04T10:35:41.527Z,100433.19
2018-08-04T10:38:10.843Z,100435.26
2018-08-04T10:40:40.094Z,100445.30
2018-08-04T10:43:09.765Z,100430.83
2018-08-04T10:45:39.180Z,100429.45
2018-08-04T10:48:08.341Z,100436.00
2018-08-04T10:50:37.710Z,100440.75
2018-08-04T10:53:07.164Z,100434.95
2018-08-04T10:55:36.365Z,100443.23
2018-08-04T10:58:05.600Z,100433.71
2018-08-04T11:00:35.434Z,100433.52
2018-08-04T11:03:04.758Z,100437.50
2018-08-04T11:05:34.248Z,100436.00
2018-08-04T11:08:03.657Z,100430.25
2018-08-04T11:10:32.931Z,100434.51
2018-08-04T11:13:02.324Z,100436.84
2018-08-04T11:15:31.645Z,100429.11
2018-08-04T11:18:00.841Z,100423.12
2018-08-04T11:20:30.149Z,100432.48
2018-08-04T11:22:59.389Z,100430.58
2018-08-04T11:25:28.722Z,100429.48
2018-08-04T11:27:58.153Z,100423.18
2018-08-04T11:30:27.545Z,100420.70
2018-08-04T11:32:56.989Z,100422.42
2018-08-04T11:35:26.264Z,100413.44
2018-08-04T11:37:55.519Z,100414.50
2018-08-04T11:40:24.823Z,100422.64
2018-08-04T11:42:54.071Z,100421.42
2018-08-04T11:45:23.465Z,100415.79
2018-08-04T11:47:52.740Z,100410.28
2018-08-04T11:50:22.040Z,100416.95
2018-08-04T11:52:51.545Z,100409.56
2018-08-04T11:55:20.834Z,100410.23
2018-08-04T11:57:50.174Z,100421.33
2018-08-04T12:00:19.449Z,100404.27
2018-08-04T12:02:48.949Z,100408.62
2018-08-04T12:05:18.746Z,100391.64
2018-08-04T12:07:48.064Z,100402.63
2018-08-04T12:10:17.474Z,100395.50
2018-08-04T12:12:46.836Z,100392.25
2018-08-04T12:15:16.108Z,100390.73
2018-08-04T12:17:45.315Z,100386.34
2018-08-04T12:20:14.908Z,100393.94
2018-08-04T12:22:44.157Z,100387.05
2018-08-04T12:25:13.521Z,100393.22
2018-08-04T12:27:42.774Z,100385.63
2018-08-04T12:30:12.102Z,100391.89
2018-08-04T12:32:41.479Z,100388.52
2018-08-04T12:35:10.749Z,100382.08
2018-08-04T12:37:40.287Z,100383.61
2018-08-04T12:40:09.718Z,100382.20
2018-08-04T12:42:39.190Z,100384.83
2018-08-04T12:45:09.525Z,100381.47
2018-08-04T12:47:39.246Z,100381.73
2018-08-04T12:50:08.942Z,100379.78
2018-08-04T12:52:38.234Z,100376.42
2018-08-04T12:55:07.674Z,100366.38
2018-08-04T12:57:37.043Z,100371.48
2018-08-04T13:00:07.189Z,100363.68
2018-08-04T13:02:36.503Z,100367.78
2018-08-04T13:05:06.732Z,100379.87
2018-08-04T13:07:36.070Z,100373.47
2018-08-04T13:10:05.602Z,100366.86
2018-08-04T13:12:34.873Z,100359.80
2018-08-04T13:15:04.303Z,100363.34
2018-08-04T13:17:33.606Z,100359.64
2018-08-04T13:20:03.061Z,100356.51
2018-08-04T13:22:32.498Z,100350.97
2018-08-04T13:25:01.622Z,100358.30
2018-08-04T13:27:30.875Z,100351.36
2018-08-04T13:30:00.207Z,100344.67
2018-08-04T13:32:29.507Z,100350.27
2018-08-04T13:34:58.729Z,100356.05
2018-08-04T13:37:27.945Z,100349.11
2018-08-04T13:39:57.298Z,100346.58
2018-08-04T13:42:26.579Z,100325.58
2018-08-04T13:44:55.906Z,100322.16
2018-08-04T13:47:25.274Z,100331.88
2018-08-04T13:49:54.525Z,100327.22
2018-08-04T13:52:23.989Z,100323.03
2018-08-04T13:54:53.315Z,100326.06
2018-08-04T13:57:22.994Z,100329.80
2018-08-04T13:59:52.192Z,100327.31
2018-08-04T14:02:21.457Z,100325.25
2018-08-04T14:04:50.689Z,100334.07
2018-08-04T14:07:20.050Z,100332.42
2018-08-04T14:09:49.617Z,100330.11
2018-08-04T14:12:19.030Z,100332.52
2018-08-04T14:14:48.430Z,100335.34
2018-08-04T14:17:17.908Z,100329.34
2018-08-04T14:19:47.114Z,100326.66
2018-08-04T14:22:16.507Z,100323.50
2018-08-04T14:24:45.850Z,100334.30
2018-08-04T14:27:15.155Z,100333.58
2018-08-04T14:29:44.294Z,100336.40
2018-08-04T14:32:13.442Z,100317.05
2018-08-04T14:34:42.850Z,100321.55
2018-08-04T14:37:12.163Z,100323.38
2018-08-04T14:39:41.416Z,100326.42
2018-08-04T14:42:10.745Z,100324.89
2018-08-04T14:44:39.938Z,100324.45
2018-08-04T14:47:09.243Z,100327.36
2018-08-04T14:49:38.583Z,100331.17
2018-08-04T14:52:07.986Z,100319.75
2018-08-04T14:54:37.194Z,100319.83
2018-08-04T14:57:06.523Z,100320.31
2018-08-04T14:59:35.793Z,100307.36
2018-08-04T15:02:05.032Z,100311.92
2018-08-04T15:04:34.576Z,100310.00
2018-08-04T15:07:04.013Z,100302.55
2018-08-04T15:09:33.378Z,100311.06
2018-08-04T15:12:02.797Z,100300.72
2018-08-04T15:14:32.140Z,100305.77
2018-08-04T15:17:01.406Z,100310.58
2018-08-04T15:19:30.749Z,100302.45
2018-08-04T15:22:00.044Z,100305.28
2018-08-04T15:24:29.363Z,100291.13
2018-08-04T15:26:58.739Z,100300.42
2018-08-04T15:29:27.825Z,100288.80
2018-08-04T15:31:57.094Z,100291.00
2018-08-04T15:34:26.364Z,100283.08
2018-08-04T15:36:55.693Z,100292.34
2018-08-04T15:39:24.795Z,100289.56
2018-08-04T15:41:54.167Z,100289.41
2018-08-04T15:44:23.464Z,100296.59
2018-08-04T15:46:52.764Z,100291.78
2018-08-04T15:49:22.068Z,100291.95
2018-08-04T15:51:51.354Z,100296.45
2018-08-04T15:54:20.551Z,100290.78
2018-08-04T15:56:49.835Z,100299.14
2018-08-04T15:59:19.270Z,100299.75
2018-08-04T16:01:48.713Z,100291.05
2018-08-04T16:04:17.798Z,100288.98
2018-08-04T16:06:47.174Z,100289.11
2018-08-04T16:09:16.468Z,100287.33
2018-08-04T16:11:45.778Z,100294.10
2018-08-04T16:14:15.174Z,100297.80
2018-08-04T16:16:44.606Z,100294.83
2018-08-04T16:19:13.815Z,100294.09
2018-08-04T16:21:43.166Z,100290.63
2018-08-04T16:24:12.437Z,100300.83
2018-08-04T16:26:41.710Z,100298.37
2018-08-04T16:29:10.946Z,100292.78
2018-08-04T16:31:40.330Z,100301.51
2018-08-04T16:34:09.581Z,100303.92
2018-08-04T16:36:38.877Z,100294.77
2018-08-04T16:39:09.642Z,100294.33
2018-08-04T16:41:39.114Z,100301.42
2018-08-04T16:44:08.289Z,100302.19
2018-08-04T16:46:37.833Z,100300.05
2018-08-04T16:49:07.113Z,100301.14
2018-08-04T16:51:36.435Z,100294.00
2018-08-04T16:54:05.757Z,100296.05
2018-08-04T16:56:35.042Z,100312.53
2018-08-04T16:59:04.182Z,100309.13
2018-08-04T17:01:33.523Z,100310.09
2018-08-04T17:04:02.822Z,100311.69
2018-08-04T17:06:32.251Z,100307.01
2018-08-04T17:09:01.522Z,100316.83
2018-08-04T17:11:30.826Z,100312.39
2018-08-04T17:14:00.103Z,100312.22
2018-08-04T17:16:29.520Z,100311.16
2018-08-04T17:18:58.766Z,100312.90
2018-08-04T17:21:28.136Z,100311.82
2018-08-04T17:23:57.481Z,100313.72
2018-08-04T17:26:26.833Z,100318.81
2018-08-04T17:28:56.098Z,100319.77
2018-08-04T17:31:25.441Z,100321.09
2018-08-04T17:33:54.621Z,100323.86
2018-08-04T17:36:23.920Z,100323.93
2018-08-04T17:38:53.237Z,100334.00
2018-08-04T17:41:22.483Z,100323.39
2018-08-04T17:43:51.998Z,100322.31
2018-08-04T17:46:21.855Z,100326.64
2018-08-04T17:48:51.274Z,100327.63
2018-08-04T17:51:20.759Z,100339.52
2018-08-04T17:53:50.162Z,100343.52
2018-08-04T17:56:19.442Z,100346.70
2018-08-04T17:58:48.888Z,100343.00
2018-08-04T18:01:18.391Z,100339.40
2018-08-04T18:03:47.711Z,100348.87
2018-08-04T18:06:17.069Z,100345.00
2018-08-04T18:08:46.485Z,100341.52
2018-08-04T18:11:15.796Z,100346.66
2018-08-04T18:13:45.062Z,100341.67
2018-08-04T18:16:14.343Z,100346.00
2018-08-04T18:18:43.820Z,100348.70
2018-08-04T18:21:13.025Z,100345.09
2018-08-04T18:23:42.293Z,100348.30
2018-08-04T18:26:11.625Z,100355.83
2018-08-04T18:28:40.881Z,100353.62
2018-08-04T18:31:10.155Z,100362.98
2018-08-04T18:33:39.389Z,100366.56
2018-08-04T18:36:08.685Z,100358.89
2018-08-04T18:38:38.067Z,100361.14
2018-08-04T18:41:07.292Z,100360.94
2018-08-04T18:43:36.610Z,100369.39
2018-08-04T18:46:05.889Z,100369.37
2018-08-04T18:48:35.231Z,100367.70
2018-08-04T18:51:04.529Z,100373.29
2018-08-04T18:53:33.887Z,100370.32
2018-08-04T18:56:03.350Z,100377.29
2018-08-04T18:58:32.628Z,100378.28
2018-08-04T19:01:01.863Z,100375.99
2018-08-04T19:03:31.301Z,100382.83
2018-08-04T19:06:00.661Z,100383.09
2018-08-04T19:08:29.916Z,100384.78
2018-08-04T19:10:59.263Z,100380.69
2018-08-04T19:13:28.534Z,100387.81
2018-08-04T19:15:57.976Z,100386.20
2018-08-04T19:18:27.342Z,100385.61
2018-08-04T19:20:56.674Z,100387.59
2018-08-04T19:23:25.921Z,100389.48
2018-08-04T19:25:55.277Z,100392.53
2018-08-04T19:28:24.657Z,100398.88
2018-08-04T19:30:53.883Z,100393.95
2018-08-04T19:33:23.360Z,100387.55
2018-08-04T19:35:52.599Z,100398.34
2018-08-04T19:38:21.991Z,100400.23
2018-08-04T19:40:51.263Z,100402.17
2018-08-04T19:43:20.601Z,100402.19
2018-08-04T19:45:49.954Z,100408.48
2018-08-04T19:48:19.212Z,100411.27
2018-08-04T19:50:48.622Z,100412.39
2018-08-04T19:53:17.922Z,100415.44
2018-08-04T19:55:47.249Z,100422.84
2018-08-04T19:58:16.529Z,100416.02
2018-08-04T20:00:45.978Z,100415.14
2018-08-04T20:03:15.267Z,100421.73
2018-08-04T20:05:44.809Z,100422.01
2018-08-04T20:08:14.168Z,100423.60
2018-08-04T20:10:43.463Z,100421.91
2018-08-04T20:13:12.660Z,100431.93
2018-08-04T20:15:41.910Z,100424.23
2018-08-04T20:18:11.254Z,100436.91
2018-08-04T20:20:40.539Z,100441.23
2018-08-04T20:23:09.854Z,100436.73
2018-08-04T20:25:39.242Z,100447.33
2018-08-04T20:28:08.705Z,100444.95
2018-08-04T20:30:38.075Z,100446.70
2018-08-04T20:33:07.383Z,100440.91
2018-08-04T20:35:36.601Z,100441.00
2018-08-04T20:38:05.812Z,100444.50
2018-08-04T20:40:34.999Z,100436.91
2018-08-04T20:43:04.340Z,100438.62
2018-08-04T20:45:33.602Z,100431.31
2018-08-04T20:48:02.784Z,100428.91
2018-08-04T20:50:33.070Z,100433.40
2018-08-04T20:53:02.350Z,100439.52
2018-08-04T20:55:31.554Z,100444.44
2018-08-04T20:58:00.845Z,100442.26
2018-08-04T21:00:36.683Z,100446.56
2018-08-04T21:03:05.931Z,100439.87
2018-08-04T21:05:35.205Z,100442.98
2018-08-04T21:08:04.549Z,100442.69
2018-08-04T21:10:33.882Z,100442.48
2018-08-04T21:13:03.085Z,100436.94
2018-08-04T21:15:32.314Z,100440.34
2018-08-04T21:18:01.508Z,100446.12
2018-08-04T21:20:30.942Z,100447.59
2018-08-04T21:23:00.333Z,100441.80
2018-08-04T21:25:29.719Z,100440.34
2018-08-04T21:27:58.891Z,100447.16
2018-08-04T21:30:28.224Z,100445.23
2018-08-04T21:32:57.671Z,100440.27
2018-08-04T21:35:26.923Z,100449.67
2018-08-04T21:37:56.100Z,100443.58
2018-08-04T21:40:25.310Z,100444.05
2018-08-04T21:42:54.483Z,100446.16
2018-08-04T21:45:23.814Z,100452.95
2018-08-04T21:47:53.406Z,100454.07
2018-08-04T21:50:22.616Z,100459.66
2018-08-04T21:52:52.103Z,100464.48
2018-08-04T21:55:21.438Z,100469.44
2018-08-04T21:57:50.715Z,100475.10
2018-08-04T22:00:19.950Z,100471.77
2018-08-04T22:02:57.981Z,100475.45
2018-08-04T22:05:27.902Z,100478.81
2018-08-04T22:08:09.009Z,100490.46
2018-08-04T22:10:38.211Z,100498.02
2018-08-04T22:13:07.469Z,100491.58
2018-08-04T22:15:36.850Z,100497.98
2018-08-04T22:18:06.105Z,100497.40
2018-08-04T22:20:35.541Z,100496.44
2018-08-04T22:23:04.842Z,100499.90
2018-08-04T22:25:34.175Z,100500.77
2018-08-04T22:28:03.206Z,100500.30
2018-08-04T22:30:32.688Z,100499.98
2018-08-04T22:33:01.966Z,100505.74
2018-08-04T22:35:31.356Z,100504.41
2018-08-04T22:38:00.648Z,100507.13
2018-08-04T22:40:30.082Z,100509.89
2018-08-04T22:42:59.329Z,100516.86
2018-08-04T22:45:45.135Z,100511.38
2018-08-04T22:48:14.399Z,100521.53
2018-08-04T22:50:43.750Z,100515.52
2018-08-04T22:53:13.202Z,100515.45
2018-08-04T22:55:43.203Z,100514.79
2018-08-04T22:58:12.688Z,100511.42
2018-08-04T23:00:43.145Z,100511.54
2018-08-04T23:03:12.892Z,100514.61
2018-08-04T23:05:42.284Z,100519.45
2018-08-04T23:08:12.447Z,100514.92
2018-08-04T23:10:42.152Z,100517.86
2018-08-04T23:13:11.869Z,100512.43
2018-08-04T23:15:41.261Z,100507.28
2018-08-04T23:18:10.832Z,100509.48
2018-08-04T23:20:40.215Z,100506.40
2018-08-04T23:23:10.610Z,100508.58
2018-08-04T23:25:39.982Z,100501.14
2018-08-04T23:28:09.745Z,100505.67
2018-08-04T23:30:39.103Z,100511.39
2018-08-04T23:33:08.476Z,100506.08
2018-08-04T23:35:37.897Z,100509.92
2018-08-04T23:38:07.073Z,100511.64
2018-08-04T23:40:36.433Z,100514.03
2018-08-04T23:43:05.646Z,100519.66
2018-08-04T23:45:35.112Z,100517.55
2018-08-04T23:48:04.487Z,100521.27
2018-08-04T23:50:33.731Z,100521.39
2018-08-04T23:53:02.931Z,100523.32
2018-08-04T23:55:32.341Z,100519.97
2018-08-04T23:58:01.574Z,100514.52
